createdAt,value
2023-05-09T00:01:20.975Z,42.53
2023-05-09T00:03:47.790Z,42.57
2023-05-09T00:06:15.652Z,42.45
2023-05-09T00:08:42.283Z,42.44
2023-05-09T00:11:08.984Z,42.60
2023-05-09T00:13:35.813Z,42.41
2023-05-09T00:16:02.498Z,42.47
2023-05-09T00:18:31.123Z,42.45
2023-05-09T00:20:57.819Z,42.32
2023-05-09T00:23:24.349Z,42.57
2023-05-09T00:25:50.889Z,42.38
2023-05-09T00:28:17.404Z,42.71
2023-05-09T00:30:43.975Z,42.39
2023-05-09T00:33:10.777Z,42.65
2023-05-09T00:35:37.332Z,42.50
2023-05-09T00:38:03.901Z,42.64
2023-05-09T00:40:30.613Z,42.62
2023-05-09T00:42:59.168Z,42.58
2023-05-09T00:45:25.927Z,42.47
2023-05-09T00:47:52.811Z,42.52
2023-05-09T00:50:19.638Z,42.52
2023-05-09T00:52:46.599Z,42.58
2023-05-09T00:55:13.872Z,42.41
2023-05-09T00:57:40.788Z,42.69
2023-05-09T01:00:12.988Z,42.57
2023-05-09T01:02:44.760Z,42.49
2023-05-09T01:05:12.217Z,42.75
2023-05-09T01:08:02.675Z,42.46
2023-05-09T01:10:54.178Z,42.57
2023-05-09T01:13:30.605Z,42.57
2023-05-09T01:16:06.412Z,42.65
2023-05-09T01:18:59.578Z,42.49
2023-05-09T01:21:31.642Z,42.61
2023-05-09T01:24:36.073Z,42.66
2023-05-09T01:27:22.823Z,42.73
2023-05-09T01:29:57.393Z,42.62
2023-05-09T01:32:27.405Z,42.64
2023-05-09T01:34:56.440Z,42.64
2023-05-09T01:37:31.626Z,42.71
2023-05-09T01:40:08.384Z,42.57
2023-05-09T01:42:48.674Z,42.42
2023-05-09T01:45:16.783Z,42.65
2023-05-09T01:47:44.901Z,42.70
2023-05-09T01:50:12.791Z,42.57
2023-05-09T01:52:42.864Z,42.53
2023-05-09T01:55:11.737Z,42.60
2023-05-09T01:57:39.006Z,42.83
2023-05-09T02:00:08.099Z,42.60
2023-05-09T02:02:35.881Z,42.73
2023-05-09T02:05:03.132Z,42.58
2023-05-09T02:07:29.954Z,42.56
2023-05-09T02:09:59.077Z,42.71
2023-05-09T02:12:25.758Z,42.54
2023-05-09T02:14:52.515Z,42.66
2023-05-09T02:17:19.236Z,42.62
2023-05-09T02:19:46.047Z,42.73
2023-05-09T02:22:13.299Z,42.76
2023-05-09T02:24:40.938Z,42.68
2023-05-09T02:27:08.773Z,42.63
2023-05-09T02:29:40.739Z,42.62
2023-05-09T02:32:17.130Z,42.53
2023-05-09T02:34:45.418Z,42.71
2023-05-09T02:37:13.330Z,42.57
2023-05-09T02:39:40.597Z,42.77
2023-05-09T02:42:09.319Z,42.79
2023-05-09T02:44:36.246Z,42.65
2023-05-09T02:47:03.968Z,42.77
2023-05-09T02:49:32.433Z,42.80
2023-05-09T02:51:59.585Z,42.65
2023-05-09T02:54:26.146Z,42.66
2023-05-09T02:56:52.767Z,42.50
2023-05-09T02:59:20.373Z,42.49
2023-05-09T03:01:46.973Z,42.71
2023-05-09T03:04:13.582Z,42.60
2023-05-09T03:06:40.257Z,42.60
2023-05-09T03:09:07.193Z,42.64
2023-05-09T03:11:36.599Z,42.32
2023-05-09T03:14:04.044Z,42.66
2023-05-09T03:16:31.131Z,42.70
2023-05-09T03:18:57.716Z,42.68
2023-05-09T03:21:24.236Z,42.78
2023-05-09T03:23:50.769Z,42.69
2023-05-09T03:26:17.363Z,42.76
2023-05-09T03:28:43.931Z,42.68
2023-05-09T03:31:10.528Z,42.74
2023-05-09T03:33:37.065Z,42.68
2023-05-09T03:36:03.730Z,42.61
2023-05-09T03:38:30.241Z,42.68
2023-05-09T03:40:56.755Z,42.75
2023-05-09T03:43:23.294Z,42.76
2023-05-09T03:45:49.826Z,42.63
2023-05-09T03:48:16.350Z,42.76
2023-05-09T03:50:42.923Z,42.66
2023-05-09T03:53:09.822Z,42.51
2023-05-09T03:55:36.358Z,42.74
2023-05-09T03:58:03.372Z,42.51
2023-05-09T04:00:30.073Z,42.63
2023-05-09T04:02:56.845Z,42.53
2023-05-09T04:05:23.455Z,42.62
2023-05-09T04:07:50.150Z,42.69
2023-05-09T04:10:16.769Z,42.68
2023-05-09T04:12:43.349Z,42.76
2023-05-09T04:15:11.125Z,42.76
2023-05-09T04:17:37.713Z,42.73
2023-05-09T04:20:04.752Z,42.79
2023-05-09T04:22:31.753Z,42.79
2023-05-09T04:24:58.249Z,42.75
2023-05-09T04:27:24.822Z,42.72
2023-05-09T04:29:53.368Z,42.80
2023-05-09T04:32:20.920Z,42.87
2023-05-09T04:34:47.515Z,42.79
2023-05-09T04:37:14.053Z,42.80
2023-05-09T04:39:40.657Z,42.67
2023-05-09T04:42:07.203Z,42.87
2023-05-09T04:44:35.880Z,42.75
2023-05-09T04:47:02.433Z,42.84
2023-05-09T04:49:28.937Z,42.81
2023-05-09T04:51:55.471Z,42.74
2023-05-09T04:54:22.034Z,42.76
2023-05-09T04:56:50.162Z,42.89
2023-05-09T04:59:17.492Z,42.81
2023-05-09T05:01:44.100Z,42.77
2023-05-09T05:04:10.949Z,42.88
2023-05-09T05:06:37.811Z,42.81
2023-05-09T05:09:05.092Z,42.85
2023-05-09T05:11:31.666Z,42.90
2023-05-09T05:13:58.172Z,42.85
2023-05-09T05:16:24.692Z,42.76
2023-05-09T05:18:51.206Z,42.80
2023-05-09T05:21:17.769Z,42.84
2023-05-09T05:23:44.234Z,42.87
2023-05-09T05:26:10.756Z,42.88
2023-05-09T05:28:37.341Z,42.86
2023-05-09T05:31:03.884Z,42.98
2023-05-09T05:33:30.499Z,42.90
2023-05-09T05:35:57.010Z,42.96
2023-05-09T05:38:23.613Z,43.05
2023-05-09T05:40:50.247Z,43.01
2023-05-09T05:43:16.756Z,43.06
2023-05-09T05:45:43.312Z,43.05
2023-05-09T05:48:09.855Z,42.92
2023-05-09T05:50:36.746Z,42.93
2023-05-09T05:53:03.395Z,42.92
2023-05-09T05:55:29.944Z,43.00
2023-05-09T05:57:56.478Z,42.98
2023-05-09T06:00:23.000Z,43.01
2023-05-09T06:02:49.688Z,42.99
2023-05-09T06:05:16.944Z,43.01
2023-05-09T06:07:44.341Z,42.94
2023-05-09T06:10:11.093Z,42.97
2023-05-09T06:12:37.785Z,42.83
2023-05-09T06:15:05.943Z,42.90
2023-05-09T06:17:33.134Z,42.93
2023-05-09T06:19:59.703Z,42.97
2023-05-09T06:22:26.396Z,42.95
2023-05-09T06:24:53.062Z,43.02
2023-05-09T06:27:19.611Z,43.07
2023-05-09T06:29:46.159Z,43.06
2023-05-09T06:32:12.728Z,43.09
2023-05-09T06:34:39.269Z,42.90
2023-05-09T06:37:05.819Z,43.06
2023-05-09T06:39:33.760Z,43.04
2023-05-09T06:42:00.639Z,42.97
2023-05-09T06:44:27.181Z,43.05
2023-05-09T06:46:53.706Z,43.06
2023-05-09T06:49:20.297Z,43.15
2023-05-09T06:51:46.818Z,43.16
2023-05-09T06:54:13.380Z,42.92
2023-05-09T06:56:39.953Z,43.02
2023-05-09T06:59:07.869Z,43.17
2023-05-09T07:01:34.544Z,43.19
2023-05-09T07:04:01.203Z,43.02
2023-05-09T07:06:27.700Z,43.13
2023-05-09T07:08:54.183Z,43.11
2023-05-09T07:11:21.164Z,43.16
2023-05-09T07:13:47.790Z,43.17
2023-05-09T07:16:14.368Z,43.15
2023-05-09T07:18:40.957Z,43.18
2023-05-09T07:21:07.650Z,43.11
2023-05-09T07:23:34.226Z,43.13
2023-05-09T07:26:01.440Z,43.19
2023-05-09T07:28:28.085Z,43.17
2023-05-09T07:30:57.773Z,43.12
2023-05-09T07:33:24.396Z,43.08
2023-05-09T07:35:52.915Z,43.06
2023-05-09T07:38:19.419Z,43.16
2023-05-09T07:40:46.177Z,43.22
2023-05-09T07:43:12.756Z,43.26
2023-05-09T07:45:39.263Z,43.28
2023-05-09T07:48:06.085Z,43.23
2023-05-09T07:50:33.264Z,43.19
2023-05-09T07:53:00.159Z,43.24
2023-05-09T07:55:26.701Z,43.32
2023-05-09T07:57:53.262Z,43.30
2023-05-09T08:00:23.772Z,43.44
2023-05-09T08:02:51.367Z,43.36
2023-05-09T08:05:18.290Z,43.30
2023-05-09T08:07:44.896Z,43.33
2023-05-09T08:10:11.740Z,43.43
2023-05-09T08:12:38.509Z,43.43
2023-05-09T08:15:05.893Z,43.48
2023-05-09T08:17:32.453Z,43.39
2023-05-09T08:19:58.942Z,43.43
2023-05-09T08:22:25.516Z,43.50
2023-05-09T08:24:52.081Z,43.60
2023-05-09T08:27:18.532Z,43.37
2023-05-09T08:29:45.524Z,43.36
2023-05-09T08:32:12.022Z,43.44
2023-05-09T08:34:38.602Z,43.43
2023-05-09T08:37:05.159Z,43.58
2023-05-09T08:39:31.821Z,43.44
2023-05-09T08:41:59.799Z,43.59
2023-05-09T08:44:28.132Z,43.53
2023-05-09T08:47:04.431Z,43.53
2023-05-09T08:49:31.324Z,43.53
2023-05-09T08:51:58.704Z,43.57
2023-05-09T08:54:25.706Z,43.55
2023-05-09T08:56:52.408Z,43.55
2023-05-09T08:59:19.687Z,43.63
2023-05-09T09:01:47.174Z,43.60
2023-05-09T09:04:13.762Z,43.67
2023-05-09T09:06:40.703Z,43.75
2023-05-09T09:09:11.521Z,43.54
2023-05-09T09:11:40.933Z,43.66
2023-05-09T09:14:13.856Z,43.71
2023-05-09T09:16:42.835Z,43.65
2023-05-09T09:19:13.432Z,43.63
2023-05-09T09:21:45.542Z,43.61
2023-05-09T09:24:21.508Z,43.72
2023-05-09T09:26:49.143Z,43.65
2023-05-09T09:29:20.609Z,43.67
2023-05-09T09:31:48.199Z,43.64
2023-05-09T09:34:23.912Z,43.72
2023-05-09T09:36:50.614Z,43.70
2023-05-09T09:39:17.365Z,43.69
2023-05-09T09:41:46.712Z,43.56
2023-05-09T09:44:18.252Z,43.72
2023-05-09T09:46:52.813Z,43.67
2023-05-09T09:49:21.532Z,43.64
2023-05-09T09:51:55.789Z,43.71
2023-05-09T09:54:22.881Z,43.65
2023-05-09T09:56:53.345Z,43.73
2023-05-09T09:59:26.633Z,43.67
2023-05-09T10:02:09.382Z,43.76
2023-05-09T10:04:39.076Z,43.69
2023-05-09T10:07:07.368Z,43.73
2023-05-09T10:09:35.828Z,43.72
2023-05-09T10:12:04.718Z,43.85
2023-05-09T10:14:35.112Z,43.71
2023-05-09T10:17:04.206Z,43.66
2023-05-09T10:19:31.849Z,43.67
2023-05-09T10:22:02.719Z,43.75
2023-05-09T10:24:41.556Z,43.78
2023-05-09T10:27:12.948Z,43.76
2023-05-09T10:29:49.459Z,43.75
2023-05-09T10:32:31.548Z,43.71
2023-05-09T10:35:04.597Z,43.79
2023-05-09T10:37:33.385Z,43.91
2023-05-09T10:40:02.948Z,43.74
2023-05-09T10:42:30.090Z,43.97
2023-05-09T10:44:57.900Z,43.88
2023-05-09T10:47:28.873Z,43.89
2023-05-09T10:49:56.194Z,43.86
2023-05-09T10:52:23.013Z,43.94
2023-05-09T10:55:03.576Z,43.94
2023-05-09T10:57:31.202Z,43.94
2023-05-09T10:59:59.404Z,44.00
2023-05-09T11:02:34.236Z,43.97
2023-05-09T11:05:17.944Z,43.99
2023-05-09T11:07:44.810Z,44.10
2023-05-09T11:10:17.745Z,44.00
2023-05-09T11:12:59.225Z,44.07
2023-05-09T11:15:27.742Z,44.10
2023-05-09T11:18:10.170Z,44.02
2023-05-09T11:20:43.616Z,44.13
2023-05-09T11:23:15.846Z,44.15
2023-05-09T11:25:42.622Z,44.11
2023-05-09T11:28:09.288Z,44.19
2023-05-09T11:30:40.609Z,44.21
2023-05-09T11:33:22.775Z,44.02
2023-05-09T11:36:29.692Z,44.11
2023-05-09T11:39:09.939Z,44.17
2023-05-09T11:41:45.651Z,44.20
2023-05-09T11:44:21.714Z,44.21
2023-05-09T11:46:49.450Z,44.19
2023-05-09T11:49:17.174Z,44.14
2023-05-09T11:51:43.752Z,44.17
2023-05-09T11:54:12.284Z,44.30
2023-05-09T11:56:42.191Z,44.28
2023-05-09T11:59:10.508Z,44.28
2023-05-09T12:01:37.201Z,44.41
2023-05-09T12:04:07.893Z,44.34
2023-05-09T12:06:34.609Z,44.36
2023-05-09T12:09:01.174Z,44.33
2023-05-09T12:11:32.103Z,44.32
2023-05-09T12:13:58.659Z,44.33
2023-05-09T12:16:25.205Z,44.44
2023-05-09T12:18:52.968Z,44.49
2023-05-09T12:21:20.514Z,44.36
2023-05-09T12:23:50.614Z,44.40
2023-05-09T12:26:18.331Z,44.44
2023-05-09T12:28:45.378Z,44.38
2023-05-09T12:31:12.461Z,44.54
2023-05-09T12:33:39.787Z,44.58
2023-05-09T12:36:12.650Z,44.52
2023-05-09T12:38:39.682Z,44.54
2023-05-09T12:41:29.594Z,44.47
2023-05-09T12:43:57.496Z,44.55
2023-05-09T12:46:24.378Z,44.49
2023-05-09T12:48:51.832Z,44.46
2023-05-09T12:51:20.615Z,44.58
2023-05-09T12:53:48.033Z,44.50
2023-05-09T12:56:19.271Z,44.52
2023-05-09T12:58:54.817Z,44.55
2023-05-09T13:01:27.352Z,44.48
2023-05-09T13:04:05.225Z,44.52
2023-05-09T13:06:32.343Z,44.51
2023-05-09T13:09:05.893Z,44.61
2023-05-09T13:11:32.727Z,44.56
2023-05-09T13:13:59.307Z,44.45
2023-05-09T13:16:25.867Z,44.62
2023-05-09T13:18:52.382Z,44.57
2023-05-09T13:21:19.364Z,44.56
2023-05-09T13:23:46.076Z,44.64
2023-05-09T13:26:12.654Z,44.64
2023-05-09T13:28:39.158Z,44.53
2023-05-09T13:31:06.821Z,44.62
2023-05-09T13:33:33.630Z,44.59
2023-05-09T13:36:00.488Z,44.58
2023-05-09T13:38:27.091Z,44.63
2023-05-09T13:40:53.602Z,44.68
2023-05-09T13:43:20.096Z,44.65
2023-05-09T13:45:46.714Z,44.60
2023-05-09T13:48:13.385Z,44.64
2023-05-09T13:50:40.070Z,44.51
2023-05-09T13:53:06.612Z,44.68
2023-05-09T13:55:34.509Z,44.64
2023-05-09T13:58:00.989Z,44.68
2023-05-09T14:00:27.542Z,44.60
2023-05-09T14:02:54.228Z,44.61
2023-05-09T14:05:20.955Z,44.69
2023-05-09T14:07:47.611Z,44.70
2023-05-09T14:10:14.341Z,44.82
2023-05-09T14:12:44.154Z,44.70
2023-05-09T14:15:11.322Z,44.69
2023-05-09T14:17:38.128Z,44.77
2023-05-09T14:20:05.227Z,44.82
2023-05-09T14:22:32.006Z,44.74
2023-05-09T14:24:58.628Z,44.75
2023-05-09T14:27:26.290Z,44.77
2023-05-09T14:29:53.064Z,44.74
2023-05-09T14:32:19.680Z,44.66
2023-05-09T14:34:46.686Z,44.75
2023-05-09T14:37:16.007Z,44.78
2023-05-09T14:39:43.992Z,44.74
2023-05-09T14:42:11.615Z,44.74
2023-05-09T14:44:38.803Z,44.62
2023-05-09T14:47:05.945Z,44.61
2023-05-09T14:49:33.120Z,44.69
2023-05-09T14:51:59.907Z,44.66
2023-05-09T14:54:27.093Z,44.76
2023-05-09T14:56:53.599Z,44.65
2023-05-09T14:59:21.212Z,44.70
2023-05-09T15:01:47.718Z,44.55
2023-05-09T15:04:14.356Z,44.61
2023-05-09T15:06:41.112Z,44.60
2023-05-09T15:09:07.854Z,44.57
2023-05-09T15:11:46.895Z,44.55
2023-05-09T15:14:15.304Z,44.55
2023-05-09T15:16:42.070Z,44.57
2023-05-09T15:19:08.727Z,44.68
2023-05-09T15:21:35.293Z,44.43
2023-05-09T15:24:02.482Z,44.63
2023-05-09T15:26:29.581Z,44.52
2023-05-09T15:28:56.357Z,44.57
2023-05-09T15:31:24.074Z,44.51
2023-05-09T15:33:50.934Z,44.59
2023-05-09T15:36:17.527Z,44.48
2023-05-09T15:38:48.309Z,44.45
2023-05-09T15:41:15.660Z,44.40
2023-05-09T15:43:42.308Z,44.44
2023-05-09T15:46:09.073Z,44.46
2023-05-09T15:48:35.656Z,44.48
2023-05-09T15:51:02.800Z,44.30
2023-05-09T15:53:29.645Z,44.45
2023-05-09T15:55:57.052Z,44.32
2023-05-09T15:58:23.568Z,44.42
2023-05-09T16:00:50.610Z,44.34
2023-05-09T16:03:17.788Z,44.33
2023-05-09T16:05:44.759Z,44.34
2023-05-09T16:08:12.015Z,44.38
2023-05-09T16:10:38.674Z,44.25
2023-05-09T16:13:05.356Z,44.35
2023-05-09T16:15:32.257Z,44.22
2023-05-09T16:17:58.825Z,44.24
2023-05-09T16:20:25.439Z,44.25
2023-05-09T16:22:52.047Z,44.16
2023-05-09T16:25:18.613Z,44.25
2023-05-09T16:27:45.381Z,44.17
2023-05-09T16:30:12.505Z,44.24
2023-05-09T16:32:39.137Z,44.13
2023-05-09T16:35:07.740Z,44.12
2023-05-09T16:37:35.622Z,44.24
2023-05-09T16:40:02.870Z,44.29
2023-05-09T16:42:29.413Z,44.23
2023-05-09T16:44:56.127Z,44.15
2023-05-09T16:47:22.741Z,44.23
2023-05-09T16:49:50.427Z,44.14
2023-05-09T16:52:17.039Z,44.07
2023-05-09T16:54:43.604Z,44.11
2023-05-09T16:57:10.236Z,44.16
2023-05-09T16:59:37.314Z,44.10
2023-05-09T17:02:04.575Z,44.09
2023-05-09T17:04:31.646Z,44.22
2023-05-09T17:06:58.276Z,44.11
2023-05-09T17:09:24.836Z,43.90
2023-05-09T17:11:51.928Z,44.00
2023-05-09T17:14:18.530Z,43.92
2023-05-09T17:16:45.297Z,44.04
2023-05-09T17:19:12.000Z,44.04
2023-05-09T17:21:41.468Z,44.08
2023-05-09T17:24:09.467Z,44.08
2023-05-09T17:26:36.085Z,44.19
2023-05-09T17:29:03.759Z,44.04
2023-05-09T17:31:30.339Z,44.00
2023-05-09T17:33:57.037Z,44.01
2023-05-09T17:36:23.836Z,44.03
2023-05-09T17:38:50.387Z,44.04
2023-05-09T17:41:17.036Z,43.95
2023-05-09T17:43:43.549Z,44.02
2023-05-09T17:46:10.261Z,44.04
2023-05-09T17:48:36.926Z,44.11
2023-05-09T17:51:03.529Z,44.16
2023-05-09T17:53:30.667Z,44.08
2023-05-09T17:55:57.757Z,44.12
2023-05-09T17:58:24.339Z,44.08
2023-05-09T18:00:54.053Z,44.01
2023-05-09T18:07:11.538Z,44.01
2023-05-09T18:09:38.042Z,44.06
2023-05-09T18:12:05.974Z,44.04
2023-05-09T18:14:32.476Z,43.91
2023-05-09T18:16:58.957Z,44.00
2023-05-09T18:19:25.522Z,44.05
2023-05-09T18:21:52.009Z,44.03
2023-05-09T18:24:20.556Z,43.97
2023-05-09T18:26:49.017Z,43.83
2023-05-09T18:29:17.102Z,43.96
2023-05-09T18:31:43.776Z,44.04
2023-05-09T18:34:10.331Z,43.97
2023-05-09T18:36:37.077Z,44.01
2023-05-09T18:39:03.639Z,44.00
2023-05-09T18:41:31.853Z,43.95
2023-05-09T18:43:58.577Z,43.99
2023-05-09T18:46:27.739Z,43.98
2023-05-09T18:48:54.730Z,44.01
2023-05-09T18:51:21.500Z,43.91
2023-05-09T18:53:48.079Z,43.84
2023-05-09T18:56:14.698Z,43.93
2023-05-09T18:58:41.457Z,44.00
2023-05-09T19:01:11.446Z,43.92
2023-05-09T19:03:45.983Z,43.91
2023-05-09T19:06:14.171Z,43.93
2023-05-09T19:08:42.060Z,43.92
2023-05-09T19:11:09.254Z,43.92
2023-05-09T19:13:38.408Z,43.94
2023-05-09T19:16:05.564Z,43.99
2023-05-09T19:18:32.117Z,43.93
2023-05-09T19:20:58.927Z,43.83
2023-05-09T19:23:28.576Z,43.86
2023-05-09T19:25:55.498Z,43.91
2023-05-09T19:28:23.028Z,43.78
2023-05-09T19:30:50.410Z,43.88
2023-05-09T19:33:17.183Z,43.91
2023-05-09T19:35:43.943Z,43.95
2023-05-09T19:38:13.345Z,43.98
2023-05-09T19:40:40.089Z,43.90
2023-05-09T19:43:06.859Z,43.96
2023-05-09T19:45:33.483Z,43.87
2023-05-09T19:48:00.674Z,43.84
2023-05-09T19:50:27.546Z,43.93
2023-05-09T19:52:54.176Z,43.87
2023-05-09T19:55:20.952Z,43.86
2023-05-09T19:57:48.518Z,43.92
2023-05-09T20:00:15.708Z,43.99
2023-05-09T20:02:42.408Z,43.79
2023-05-09T20:05:09.304Z,43.92
2023-05-09T20:07:35.804Z,43.95
2023-05-09T20:10:02.300Z,43.93
2023-05-09T20:12:30.245Z,43.81
2023-05-09T20:14:57.094Z,43.79
2023-05-09T20:17:23.716Z,43.90
2023-05-09T20:19:50.293Z,43.87
2023-05-09T20:22:16.853Z,43.76
2023-05-09T20:24:43.351Z,43.78
2023-05-09T20:27:09.844Z,43.80
2023-05-09T20:29:36.411Z,43.84
2023-05-09T20:32:03.296Z,43.83
2023-05-09T20:34:29.864Z,43.89
2023-05-09T20:36:56.451Z,43.90
2023-05-09T20:39:23.257Z,43.84
2023-05-09T20:41:50.631Z,43.88
2023-05-09T20:44:17.865Z,43.78
2023-05-09T20:46:45.920Z,43.90
2023-05-09T20:49:12.734Z,43.83
2023-05-09T20:51:39.513Z,43.89
2023-05-09T20:54:06.244Z,43.83
2023-05-09T20:56:35.265Z,43.86
2023-05-09T20:59:04.099Z,43.78
2023-05-09T21:01:32.580Z,43.84
2023-05-09T21:03:59.370Z,43.84
2023-05-09T21:06:26.118Z,43.84
2023-05-09T21:08:52.809Z,43.77
2023-05-09T21:11:19.373Z,44.01
2023-05-09T21:13:45.955Z,43.86
2023-05-09T21:16:12.438Z,43.88
2023-05-09T21:18:38.946Z,43.74
2023-05-09T21:21:08.466Z,43.85
2023-05-09T21:23:35.234Z,43.77
2023-05-09T21:26:02.534Z,43.77
2023-05-09T21:28:30.002Z,44.04
2023-05-09T21:30:56.562Z,43.82
2023-05-09T21:33:23.170Z,43.89
2023-05-09T21:35:49.673Z,43.87
2023-05-09T21:38:16.151Z,43.82
2023-05-09T21:40:42.644Z,43.84
2023-05-09T21:43:09.216Z,43.80
2023-05-09T21:45:35.707Z,43.87
2023-05-09T21:48:02.394Z,43.78
2023-05-09T21:50:29.061Z,43.89
2023-05-09T21:52:56.314Z,43.83
2023-05-09T21:55:23.396Z,43.76
2023-05-09T21:57:49.936Z,43.85
2023-05-09T22:00:17.415Z,43.84
2023-05-09T22:02:44.389Z,43.83
2023-05-09T22:05:11.686Z,43.85
2023-05-09T22:07:38.996Z,43.88
2023-05-09T22:10:06.212Z,43.82
2023-05-09T22:12:33.701Z,43.80
2023-05-09T22:15:00.237Z,43.73
2023-05-09T22:17:26.793Z,43.78
2023-05-09T22:19:53.453Z,43.77
2023-05-09T22:22:21.245Z,43.67
2023-05-09T22:24:47.817Z,43.78
2023-05-09T22:27:14.481Z,43.79
2023-05-09T22:29:41.000Z,43.81
2023-05-09T22:32:08.386Z,43.76
2023-05-09T22:34:35.686Z,43.81
2023-05-09T22:37:02.255Z,43.82
2023-05-09T22:39:29.427Z,43.84
2023-05-09T22:41:55.959Z,43.91
2023-05-09T22:44:22.586Z,43.81
2023-05-09T22:46:49.065Z,43.79
2023-05-09T22:49:15.595Z,43.80
2023-05-09T22:51:42.253Z,43.77
2023-05-09T22:54:09.056Z,43.82
2023-05-09T22:56:35.567Z,43.71
2023-05-09T22:59:02.128Z,43.83
2023-05-09T23:01:28.736Z,43.77
2023-05-09T23:03:55.367Z,43.71
2023-05-09T23:06:21.957Z,43.83
2023-05-09T23:08:48.466Z,43.75
2023-05-09T23:11:15.001Z,43.79
2023-05-09T23:13:41.916Z,43.72
2023-05-09T23:16:08.552Z,43.84
2023-05-09T23:18:35.079Z,43.76
2023-05-09T23:21:01.607Z,43.76
2023-05-09T23:23:28.798Z,43.78
2023-05-09T23:25:55.345Z,43.86
2023-05-09T23:28:25.026Z,43.76
2023-05-09T23:30:53.257Z,43.82
2023-05-09T23:33:20.208Z,43.73
2023-05-09T23:35:47.484Z,43.94
2023-05-09T23:38:14.004Z,43.85
2023-05-09T23:40:44.090Z,43.81
2023-05-09T23:43:10.575Z,43.88
2023-05-09T23:45:37.094Z,43.88
2023-05-09T23:48:04.170Z,43.79
2023-05-09T23:50:30.820Z,43.79
2023-05-09T23:52:57.330Z,43.88
2023-05-09T23:55:23.854Z,43.82
2023-05-09T23:57:50.397Z,43.92
